Time;durP1;ratioP1;P1;durP2;ratioP2;P2;SDS_P1;SDS_P2;PMS_P1;PMS_P2;Temp;Humidity;BMP_temperature;BMP_pressure;BME280_temperature;BME280_humidity;BME280_pressure;Samples;Min_cycle;Max_cycle;Signal;HPM_P1;HPM_P2
2022/04/11 00:01:06;;;;;;;5.32;1.25;;;;;;;8.29;100.00;101209.19;5053417;28;20505;-82
2022/04/11 00:03:33;;;;;;;8.73;1.70;;;;;;;7.94;100.00;101191.63;5064579;28;20044;-82
2022/04/11 00:06:00;;;;;;;5.07;1.30;;;;;;;8.13;100.00;101195.59;5073218;28;20135;-82
2022/04/11 00:08:27;;;;;;;6.32;1.50;;;;;;;8.16;100.00;101179.88;5072701;28;20072;-82
2022/04/11 00:10:54;;;;;;;3.88;1.10;;;;;;;8.38;100.00;101181.19;5072339;28;20056;-81
2022/04/11 00:13:22;;;;;;;3.10;1.10;;;;;;;8.13;100.00;101179.94;5072781;28;20394;-81
2022/04/11 00:15:48;;;;;;;6.22;1.30;;;;;;;8.21;100.00;101185.00;5074261;28;20078;-82
2022/04/11 00:18:15;;;;;;;8.23;1.52;;;;;;;8.14;100.00;101173.84;5073930;28;20052;-81
2022/04/11 00:20:42;;;;;;;3.30;1.20;;;;;;;7.88;100.00;101155.22;5072416;28;20052;-81
2022/04/11 00:23:09;;;;;;;5.47;1.33;;;;;;;7.89;100.00;101163.03;5072188;28;20071;-81
2022/04/11 00:25:37;;;;;;;8.38;1.95;;;;;;;8.18;100.00;101196.34;5070395;28;20477;-81
2022/04/11 00:28:04;;;;;;;4.30;1.35;;;;;;;7.96;100.00;101166.38;5074001;28;20083;-81
2022/04/11 00:30:31;;;;;;;4.22;1.25;;;;;;;8.17;100.00;101181.59;5074302;28;20045;-82
2022/04/11 00:32:58;;;;;;;6.13;1.80;;;;;;;8.33;100.00;101202.16;5073393;28;20371;-82
2022/04/11 00:35:24;;;;;;;4.60;1.27;;;;;;;7.95;100.00;101175.97;5073435;28;20049;-81
2022/04/11 00:37:51;;;;;;;3.53;1.15;;;;;;;8.20;100.00;101198.94;5073355;28;20059;-81
2022/04/11 00:40:19;;;;;;;3.33;1.20;;;;;;;7.71;100.00;101169.47;5071767;28;20051;-81
2022/04/11 00:42:52;;;;;;;2.15;1.00;;;;;;;7.79;100.00;101191.03;5072485;28;20056;-81
2022/04/11 00:45:18;;;;;;;2.22;1.13;;;;;;;7.63;100.00;101145.28;5071410;28;20055;-82
2022/04/11 00:47:45;;;;;;;3.45;1.20;;;;;;;8.01;100.00;101198.44;5072334;28;20049;-82
2022/04/11 00:50:13;;;;;;;4.40;1.20;;;;;;;7.91;100.00;101204.72;5073512;28;20048;-82
2022/04/11 00:52:44;;;;;;;3.78;1.30;;;;;;;7.39;100.00;101139.63;5071889;28;20610;-81
2022/04/11 00:55:12;;;;;;;2.85;1.10;;;;;;;7.36;100.00;101131.03;5071401;28;20088;-81
2022/04/11 00:57:39;;;;;;;4.15;1.23;;;;;;;7.56;100.00;101180.16;5084048;28;20527;-81
2022/04/11 01:00:08;;;;;;;3.90;1.10;;;;;;;7.77;100.00;101200.63;5092304;28;20058;-81
2022/04/11 01:02:34;;;;;;;4.63;1.30;;;;;;;7.50;100.00;101146.41;5088728;28;20066;-82
2022/04/11 01:05:05;;;;;;;4.85;1.40;;;;;;;7.67;100.00;101198.22;5071437;28;20113;-81
2022/04/11 01:07:32;;;;;;;3.63;1.05;;;;;;;7.66;100.00;101194.75;5072779;28;20059;-81
2022/04/11 01:09:58;;;;;;;5.05;1.13;;;;;;;7.40;100.00;101198.69;5071793;28;20132;-81
2022/04/11 01:12:26;;;;;;;4.68;1.50;;;;;;;7.47;100.00;101196.84;5072555;28;20140;-82
2022/04/11 01:14:52;;;;;;;2.17;1.02;;;;;;;7.61;100.00;101191.34;5070921;28;20053;-81
2022/04/11 01:17:19;;;;;;;4.53;1.40;;;;;;;7.47;100.00;101186.41;5073139;28;20048;-81
2022/04/11 01:19:46;;;;;;;3.15;1.23;;;;;;;7.12;100.00;101138.38;5073078;28;20143;-81
2022/04/11 01:22:12;;;;;;;2.65;1.10;;;;;;;7.15;100.00;101145.28;5073131;28;20047;-81
2022/04/11 01:24:39;;;;;;;3.28;1.10;;;;;;;7.21;100.00;101160.81;5071698;28;20506;-81
2022/04/11 01:27:06;;;;;;;2.55;1.27;;;;;;;6.84;100.00;101120.59;5082252;28;20054;-81
2022/04/11 01:29:33;;;;;;;4.47;1.70;;;;;;;7.32;100.00;101177.09;5091816;28;20054;-81
2022/04/11 01:32:03;;;;;;;9.85;1.73;;;;;;;7.20;100.00;101192.94;5093169;28;20044;-81
2022/04/11 01:34:30;;;;;;;3.88;1.17;;;;;;;7.36;100.00;101181.38;5072186;28;20055;-81
2022/04/11 01:36:57;;;;;;;3.35;1.10;;;;;;;7.56;100.00;101177.53;5071486;28;20052;-82
2022/04/11 01:39:24;;;;;;;2.88;1.35;;;;;;;7.37;100.00;101133.59;5072685;28;20059;-82
2022/04/11 01:41:51;;;;;;;2.72;1.10;;;;;;;7.42;100.00;101154.38;5070964;28;20594;-81
2022/04/11 01:44:19;;;;;;;6.40;1.40;;;;;;;7.48;100.00;101169.88;5066620;28;20053;-81
2022/04/11 01:46:46;;;;;;;2.28;1.20;;;;;;;7.17;100.00;101107.91;5057947;28;20048;-82
2022/04/11 01:49:13;;;;;;;4.93;1.45;;;;;;;7.38;100.00;101127.50;5073006;28;20658;-82
2022/04/11 01:51:40;;;;;;;6.47;1.63;;;;;;;7.28;100.00;101114.66;5072756;28;20067;-81
2022/04/11 01:54:06;;;;;;;3.75;1.85;;;;;;;7.34;100.00;101133.66;5071745;28;20052;-82
2022/04/11 01:56:33;;;;;;;4.45;1.35;;;;;;;7.59;100.00;101167.06;5071132;28;20052;-81
2022/04/11 01:59:00;;;;;;;2.60;1.00;;;;;;;7.49;100.00;101135.13;5072349;28;20383;-82
2022/04/11 02:01:27;;;;;;;2.65;1.33;;;;;;;7.26;100.00;101104.28;5072560;28;20051;-82
2022/04/11 02:03:54;;;;;;;4.68;1.20;;;;;;;7.29;100.00;101088.59;5071353;28;20161;-82
2022/04/11 02:06:20;;;;;;;3.67;1.13;;;;;;;7.25;100.00;101089.53;5071305;28;20754;-82
2022/04/11 02:08:47;;;;;;;6.68;1.50;;;;;;;7.26;100.00;101091.28;5072743;28;20052;-82
2022/04/11 02:11:14;;;;;;;3.30;1.23;;;;;;;7.61;100.00;101115.78;5074594;28;20048;-82
2022/04/11 02:13:41;;;;;;;5.80;1.20;;;;;;;7.23;100.00;101079.16;5074950;28;20059;-82
2022/04/11 02:16:08;;;;;;;4.43;2.65;;;;;;;7.14;100.00;101084.53;5075128;28;20066;-82
2022/04/11 02:18:35;;;;;;;2.80;1.17;;;;;;;7.42;100.00;101099.66;5070294;28;20474;-82
2022/04/11 02:21:02;;;;;;;2.97;1.25;;;;;;;7.25;100.00;101083.47;5076082;28;20048;-82
2022/04/11 02:23:28;;;;;;;3.47;1.30;;;;;;;7.55;100.00;101129.78;5075497;28;20127;-82
2022/04/11 02:25:55;;;;;;;4.85;1.50;;;;;;;7.39;100.00;101144.84;5064663;28;20505;-82
2022/04/11 02:28:22;;;;;;;4.55;1.38;;;;;;;7.29;100.00;101072.97;5056056;28;20670;-82
2022/04/11 02:30:49;;;;;;;1.90;1.10;;;;;;;7.65;100.00;101103.53;5055983;28;20055;-82
2022/04/11 02:33:16;;;;;;;3.38;1.17;;;;;;;7.47;100.00;101102.16;5070227;28;20044;-82
2022/04/11 02:35:42;;;;;;;8.05;1.67;;;;;;;7.44;100.00;101110.03;5076137;28;20050;-82
2022/04/11 02:38:09;;;;;;;6.22;1.70;;;;;;;7.00;100.00;101076.09;5059898;28;20051;-83
2022/04/11 02:40:36;;;;;;;5.15;1.50;;;;;;;7.58;100.00;101134.09;5070873;28;20052;-83
2022/04/11 02:43:03;;;;;;;4.80;1.70;;;;;;;7.57;100.00;101124.56;5075030;28;20049;-82
2022/04/11 02:45:30;;;;;;;9.40;1.70;;;;;;;7.12;100.00;101073.28;5076005;28;20049;-82
2022/04/11 02:48:03;;;;;;;4.32;1.50;;;;;;;7.73;100.00;101117.31;5076318;28;20044;-82
2022/04/11 02:50:29;;;;;;;8.45;1.80;;;;;;;7.45;100.00;101085.69;5076372;28;20059;-82
2022/04/11 02:52:56;;;;;;;9.57;2.13;;;;;;;7.08;100.00;101071.59;5074054;28;20052;-81
2022/04/11 02:55:23;;;;;;;9.23;1.58;;;;;;;7.74;100.00;101126.84;5075286;28;20128;-82
2022/04/11 02:57:50;;;;;;;6.88;1.85;;;;;;;7.82;100.00;101153.59;5074600;28;20063;-82
2022/04/11 03:00:18;;;;;;;10.52;2.05;;;;;;;7.23;100.00;101081.75;5075940;28;20523;-82
2022/04/11 03:02:44;;;;;;;5.20;1.17;;;;;;;7.41;100.00;101067.50;5074979;28;20051;-82
2022/04/11 03:05:11;;;;;;;5.80;1.55;;;;;;;7.58;100.00;101114.09;5075921;28;20498;-81
2022/04/11 03:07:38;;;;;;;9.23;1.80;;;;;;;7.66;100.00;101126.13;5075845;28;20055;-82
2022/04/11 03:10:05;;;;;;;7.32;1.77;;;;;;;7.50;100.00;101065.63;5055798;28;20398;-82
2022/04/11 03:12:33;;;;;;;6.28;1.52;;;;;;;7.74;100.00;101112.06;5056400;28;20107;-82
2022/04/11 03:15:00;;;;;;;8.20;1.60;;;;;;;7.80;100.00;101144.97;5075192;28;20487;-82
2022/04/11 03:17:27;;;;;;;4.65;1.33;;;;;;;7.96;100.00;101154.19;5075356;28;20055;-82
2022/04/11 03:19:54;;;;;;;8.57;1.55;;;;;;;7.54;100.00;101106.38;5075308;28;20048;-82
2022/04/11 03:22:21;;;;;;;5.47;1.40;;;;;;;7.46;100.00;101090.88;5073013;28;20498;-82
2022/04/11 03:24:48;;;;;;;10.63;4.00;;;;;;;7.64;100.00;101104.44;5073184;28;20078;-82
2022/04/11 03:27:14;;;;;;;5.00;1.55;;;;;;;7.62;100.00;101111.44;5054077;28;20053;-82
2022/04/11 03:29:41;;;;;;;6.13;1.45;;;;;;;7.89;100.00;101144.78;5054029;28;20068;-80
2022/04/11 03:32:08;;;;;;;8.55;1.75;;;;;;;7.40;100.00;101124.84;5055335;28;20060;-81
2022/04/11 03:34:35;;;;;;;9.75;2.10;;;;;;;7.38;100.00;101093.66;5073820;28;20462;-82
2022/04/11 03:37:02;;;;;;;5.32;1.35;;;;;;;7.94;100.00;101149.91;5073649;28;20054;-82
2022/04/11 03:39:29;;;;;;;8.25;1.58;;;;;;;7.04;100.00;101085.56;5074573;28;20051;-82
2022/04/11 03:41:56;;;;;;;7.03;1.67;;;;;;;7.28;100.00;101107.72;5074386;28;20123;-82
2022/04/11 03:44:22;;;;;;;5.53;1.67;;;;;;;7.13;100.00;101080.19;5073892;28;20494;-82
2022/04/11 03:46:49;;;;;;;5.55;1.38;;;;;;;7.68;100.00;101132.16;5075309;28;20397;-82
2022/04/11 03:49:16;;;;;;;8.02;1.85;;;;;;;7.66;100.00;101131.34;5065024;28;20075;-80
2022/04/11 03:51:44;;;;;;;7.28;1.67;;;;;;;7.54;100.00;101103.75;5054133;28;20053;-80
2022/04/11 03:54:11;;;;;;;5.82;1.38;;;;;;;7.64;100.00;101118.34;5063984;28;20056;-81
2022/04/11 03:56:38;;;;;;;3.42;1.27;;;;;;;7.65;100.00;101104.44;5052278;28;20063;-82
2022/04/11 03:59:04;;;;;;;11.10;2.20;;;;;;;7.46;100.00;101123.91;5054519;28;20053;-82
2022/04/11 04:01:31;;;;;;;7.90;1.55;;;;;;;7.32;100.00;101109.38;5053299;28;20045;-82
2022/04/11 04:03:58;;;;;;;10.90;1.58;;;;;;;7.63;100.00;101123.56;5067672;28;20494;-82
2022/04/11 04:06:25;;;;;;;4.90;1.60;;;;;;;7.60;100.00;101116.69;5072856;28;20056;-83
2022/04/11 04:08:51;;;;;;;5.60;1.45;;;;;;;7.84;100.00;101117.94;5074590;28;20059;-82
2022/04/11 04:11:18;;;;;;;9.15;1.77;;;;;;;7.49;100.00;101116.00;5073225;28;20467;-82
2022/04/11 04:13:45;;;;;;;5.40;1.70;;;;;;;7.64;100.00;101110.53;5073385;28;20529;-82
2022/04/11 04:16:12;;;;;;;13.43;1.67;;;;;;;7.57;100.00;101109.78;5074332;28;20054;-82
2022/04/11 04:18:38;;;;;;;9.48;1.70;;;;;;;7.66;100.00;101123.53;5074525;28;20501;-82
2022/04/11 04:21:05;;;;;;;4.25;1.25;;;;;;;7.73;100.00;101127.72;5074318;28;20482;-83
2022/04/11 04:23:32;;;;;;;5.43;1.50;;;;;;;7.46;100.00;101124.75;5073072;28;20053;-82
2022/04/11 04:25:59;;;;;;;4.97;1.60;;;;;;;7.66;100.00;101126.97;5073950;28;20478;-82
2022/04/11 04:28:25;;;;;;;9.00;1.98;;;;;;;7.49;100.00;101129.03;5072768;28;20052;-82
2022/04/11 04:30:52;;;;;;;8.30;1.83;;;;;;;7.46;100.00;101113.50;5074371;28;20053;-82
2022/04/11 04:33:20;;;;;;;3.60;1.60;;;;;;;7.68;100.00;101106.94;5072962;28;20470;-82
2022/04/11 04:35:46;;;;;;;11.13;1.60;;;;;;;7.72;100.00;101126.88;5073822;28;20052;-82
2022/04/11 04:38:13;;;;;;;10.38;1.90;;;;;;;7.67;100.00;101114.84;5072879;28;20490;-82
2022/04/11 04:40:40;;;;;;;5.65;1.40;;;;;;;7.79;100.00;101123.25;5073422;28;20063;-82
2022/04/11 04:43:08;;;;;;;10.23;1.73;;;;;;;7.82;100.00;101119.72;5072455;28;20047;-82
2022/04/11 04:45:36;;;;;;;6.93;1.83;;;;;;;7.86;100.00;101130.94;5072060;28;20054;-82
2022/04/11 04:48:08;;;;;;;9.35;2.63;;;;;;;7.68;100.00;101108.72;5069108;28;20048;-82
2022/04/11 04:50:35;;;;;;;6.80;2.10;;;;;;;7.52;100.00;101108.16;5073266;28;20040;-82
2022/04/11 04:53:02;;;;;;;6.45;1.63;;;;;;;7.62;100.00;101075.81;5077172;28;20040;-83
2022/04/11 04:55:29;;;;;;;9.00;2.40;;;;;;;7.89;100.00;101121.31;5072094;28;20398;-82
2022/04/11 04:57:56;;;;;;;6.80;1.63;;;;;;;7.84;100.00;101101.44;5072993;28;20052;-82
2022/04/11 05:00:22;;;;;;;5.75;1.85;;;;;;;7.61;100.00;101107.97;5073414;28;20048;-82
2022/04/11 05:02:49;;;;;;;12.32;2.20;;;;;;;7.80;100.00;101111.06;5069932;28;20056;-82
2022/04/11 05:05:16;;;;;;;10.18;2.58;;;;;;;7.76;100.00;101105.06;5072849;28;20603;-84
2022/04/11 05:07:43;;;;;;;6.32;1.70;;;;;;;7.75;100.00;101097.28;5072644;28;20052;-82
2022/04/11 05:10:14;;;;;;;6.40;1.65;;;;;;;7.66;100.00;101103.53;5071513;28;20056;-82
2022/04/11 05:12:46;;;;;;;6.72;2.63;;;;;;;7.52;100.00;101071.66;5068718;28;20055;-82
2022/04/11 05:15:14;;;;;;;8.80;2.25;;;;;;;7.46;100.00;101045.75;5071565;28;20128;-82
2022/04/11 05:17:41;;;;;;;26.38;3.47;;;;;;;7.22;100.00;101035.78;5072855;28;20052;-82
2022/04/11 05:20:09;;;;;;;8.50;1.60;;;;;;;7.69;100.00;101056.56;5073140;28;20413;-80
2022/04/11 05:22:36;;;;;;;15.55;1.98;;;;;;;7.37;100.00;101086.72;5072459;28;20040;-80
2022/04/11 05:25:03;;;;;;;8.45;1.88;;;;;;;7.46;100.00;101083.06;5071099;28;20053;-81
2022/04/11 05:27:30;;;;;;;13.95;2.30;;;;;;;7.59;100.00;101084.53;5071005;28;20079;-80
2022/04/11 05:29:56;;;;;;;9.88;3.10;;;;;;;7.52;100.00;101079.47;5071944;28;20052;-80
2022/04/11 05:32:23;;;;;;;7.13;1.90;;;;;;;7.57;100.00;101083.72;5072464;28;20386;-80
2022/04/11 05:34:50;;;;;;;10.07;2.28;;;;;;;7.58;100.00;101087.19;5071885;28;20044;-80
2022/04/11 05:37:17;;;;;;;9.50;2.00;;;;;;;7.78;100.00;101085.03;5072402;28;20049;-82
2022/04/11 05:39:43;;;;;;;12.80;1.92;;;;;;;7.83;100.00;101091.94;5071101;28;20463;-82
2022/04/11 05:42:10;;;;;;;7.15;1.55;;;;;;;7.86;100.00;101097.06;5072105;28;20048;-82
2022/04/11 05:44:37;;;;;;;8.35;2.00;;;;;;;7.74;100.00;101100.78;5069847;28;20050;-81
2022/04/11 05:47:04;;;;;;;9.23;1.60;;;;;;;7.85;100.00;101095.34;5072664;28;20044;-81
2022/04/11 05:49:31;;;;;;;9.15;2.03;;;;;;;7.53;100.00;101095.09;5070982;28;20055;-81
2022/04/11 05:51:58;;;;;;;12.68;2.42;;;;;;;8.04;100.00;101111.44;5071166;28;20628;-80
2022/04/11 05:54:25;;;;;;;6.78;1.67;;;;;;;7.85;100.00;101091.00;5070078;28;20045;-80
2022/04/11 05:56:52;;;;;;;8.93;1.77;;;;;;;8.08;100.00;101108.75;5071962;28;20379;-81
2022/04/11 05:59:19;;;;;;;12.55;2.05;;;;;;;7.86;100.00;101097.06;5060586;28;20053;-80
2022/04/11 06:01:46;;;;;;;7.13;1.40;;;;;;;8.20;100.00;101102.44;5050984;28;20049;-80
2022/04/11 06:04:13;;;;;;;7.90;2.40;;;;;;;8.11;100.00;101113.03;5065922;28;20135;-80
2022/04/11 06:06:39;;;;;;;8.00;1.92;;;;;;;7.94;100.00;101102.97;5072496;28;20056;-81
2022/04/11 06:09:06;;;;;;;11.13;2.08;;;;;;;7.90;100.00;101067.44;5070615;28;20129;-80
2022/04/11 06:11:33;;;;;;;12.23;2.15;;;;;;;8.12;100.00;101102.56;5070667;28;20044;-80
2022/04/11 06:14:00;;;;;;;8.48;2.42;;;;;;;8.06;100.00;101113.16;5064202;28;20072;-80
2022/04/11 06:16:26;;;;;;;8.45;2.13;;;;;;;8.02;100.00;101092.38;5071081;28;20497;-80
2022/04/11 06:18:54;;;;;;;8.25;1.92;;;;;;;8.18;100.00;101097.25;5071039;28;20084;-80
2022/04/11 06:21:20;;;;;;;9.88;1.90;;;;;;;7.93;100.00;101064.75;5071182;28;20048;-80
2022/04/11 06:23:47;;;;;;;15.13;2.53;;;;;;;8.05;100.00;101100.13;5064060;28;20390;-80
2022/04/11 06:26:14;;;;;;;11.93;1.90;;;;;;;8.35;100.00;101104.69;5066842;28;20053;-79
2022/04/11 06:28:43;;;;;;;7.95;1.80;;;;;;;8.51;100.00;101100.00;5070900;28;20060;-80
2022/04/11 06:31:11;;;;;;;14.10;2.10;;;;;;;8.41;100.00;101108.91;5071957;28;20048;-80
2022/04/11 06:33:38;;;;;;;13.82;2.95;;;;;;;8.12;100.00;101115.63;5070735;28;20052;-80
2022/04/11 06:36:05;;;;;;;15.00;2.45;;;;;;;8.29;100.00;101088.31;5070389;28;20048;-80
2022/04/11 06:38:32;;;;;;;13.10;2.53;;;;;;;8.34;100.00;101083.88;5070378;28;20051;-82
2022/04/11 06:40:59;;;;;;;5.57;1.83;;;;;;;8.21;100.00;101048.50;5068423;28;20053;-82
2022/04/11 06:43:26;;;;;;;10.15;2.00;;;;;;;7.95;100.00;101032.53;5069368;28;20048;-82
2022/04/11 06:45:53;;;;;;;14.00;2.85;;;;;;;8.45;100.00;101089.72;5064568;28;20054;-82
2022/04/11 06:48:20;;;;;;;11.05;2.70;;;;;;;8.15;100.00;101047.75;5062971;28;20044;-82
2022/04/11 06:50:47;;;;;;;10.27;2.40;;;;;;;8.89;100.00;101089.56;5050639;28;20402;-82
2022/04/11 06:53:14;;;;;;;11.68;2.40;;;;;;;8.61;100.00;101026.72;5069493;28;20387;-82
2022/04/11 06:55:43;;;;;;;12.13;2.60;;;;;;;8.63;100.00;101062.31;5069332;28;20075;-82
2022/04/11 06:58:10;;;;;;;9.73;2.55;;;;;;;8.62;100.00;101044.94;5069390;28;20049;-83
2022/04/11 07:00:37;;;;;;;13.00;2.13;;;;;;;8.70;100.00;101050.81;5075007;28;20098;-82
2022/04/11 07:03:04;;;;;;;8.35;2.22;;;;;;;9.06;100.00;101094.34;5073818;28;20044;-82
2022/04/11 07:05:30;;;;;;;12.52;2.95;;;;;;;9.03;100.00;101108.34;5069385;28;20202;-83
2022/04/11 07:07:58;;;;;;;17.90;2.45;;;;;;;8.76;100.00;101035.91;5074963;28;20058;-82
2022/04/11 07:10:24;;;;;;;11.48;2.58;;;;;;;9.02;100.00;101049.16;5072337;28;20066;-83
2022/04/11 07:12:51;;;;;;;13.75;2.60;;;;;;;9.12;100.00;101036.72;5070425;28;20049;-83
2022/04/11 07:15:18;;;;;;;7.85;2.10;;;;;;;9.55;100.00;101030.31;5074818;28;20052;-82
2022/04/11 07:17:45;;;;;;;10.05;2.63;;;;;;;9.67;100.00;101035.16;5056346;28;20048;-83
2022/04/11 07:20:13;;;;;;;9.30;2.28;;;;;;;9.47;100.00;101027.03;5069218;28;20048;-83
2022/04/11 07:22:41;;;;;;;18.25;3.80;;;;;;;9.44;100.00;101100.31;5072629;28;20044;-83
2022/04/11 07:25:08;;;;;;;7.03;1.70;;;;;;;9.23;100.00;101088.69;5072567;28;20508;-83
2022/04/11 07:27:35;;;;;;;19.67;3.25;;;;;;;9.18;100.00;101104.47;5053232;28;20057;-83
2022/04/11 07:30:05;;;;;;;10.38;2.30;;;;;;;9.15;100.00;101094.09;5053676;28;20049;-83
2022/04/11 07:32:32;;;;;;;16.08;2.70;;;;;;;8.92;100.00;101079.00;5055175;28;20049;-84
2022/04/11 07:34:59;;;;;;;13.95;2.13;;;;;;;9.17;100.00;101100.16;5074516;28;20048;-83
2022/04/11 07:37:27;;;;;;;11.73;2.10;;;;;;;8.99;100.00;101085.78;5073205;28;20082;-83
2022/04/11 07:39:54;;;;;;;14.38;2.83;;;;;;;9.21;100.00;101096.56;5074468;28;20151;-83
2022/04/11 07:42:21;;;;;;;17.10;3.35;;;;;;;9.06;100.00;101066.44;5073338;28;20044;-83
2022/04/11 07:44:48;;;;;;;11.77;2.45;;;;;;;9.12;100.00;101089.81;5063082;28;20123;-83
2022/04/11 07:47:15;;;;;;;15.13;2.97;;;;;;;9.19;100.00;101087.03;5070673;28;20379;-83
2022/04/11 07:49:42;;;;;;;14.57;2.75;;;;;;;9.24;100.00;101059.91;5070784;28;20049;-83
2022/04/11 07:52:08;;;;;;;13.30;3.10;;;;;;;9.14;100.00;101092.38;5062510;28;20123;-83
2022/04/11 07:54:36;;;;;;;12.38;3.00;;;;;;;9.20;100.00;101096.59;5066524;28;20048;-83
2022/04/11 07:57:03;;;;;;;11.48;2.40;;;;;;;9.56;100.00;101091.28;5066963;28;20056;-83
2022/04/11 07:59:30;;;;;;;14.95;3.00;;;;;;;9.61;100.00;101107.69;5068392;28;20135;-83
2022/04/11 08:01:57;;;;;;;11.88;2.72;;;;;;;9.18;100.00;101096.63;5072211;28;20048;-84
2022/04/11 08:04:24;;;;;;;12.35;2.40;;;;;;;8.93;100.00;101101.63;5065587;28;20486;-84
2022/04/11 08:06:50;;;;;;;13.95;2.42;;;;;;;8.99;100.00;101080.56;5072256;28;20385;-83
2022/04/11 08:09:17;;;;;;;15.60;3.05;;;;;;;9.20;100.00;101101.81;5070843;28;20059;-83
2022/04/11 08:11:44;;;;;;;14.75;2.55;;;;;;;9.32;100.00;101086.66;5060656;28;20459;-80
2022/04/11 08:14:11;;;;;;;13.05;3.95;;;;;;;9.15;100.00;101098.47;5070008;28;20043;-83
2022/04/11 08:16:38;;;;;;;24.98;4.53;;;;;;;9.16;100.00;101094.97;5069351;28;20513;-83
2022/04/11 08:19:05;;;;;;;17.73;3.05;;;;;;;9.11;100.00;101095.06;5064049;28;20114;-82
2022/04/11 08:21:31;;;;;;;10.23;3.03;;;;;;;9.18;100.00;101080.09;5071649;28;20048;-83
2022/04/11 08:23:58;;;;;;;13.50;2.70;;;;;;;9.34;100.00;101085.78;5071985;28;20445;-82
2022/04/11 08:26:25;;;;;;;11.55;2.90;;;;;;;9.33;100.00;101082.31;5059445;28;20049;-83
2022/04/11 08:28:51;;;;;;;16.73;2.90;;;;;;;9.80;100.00;101089.72;5053852;28;20127;-82
2022/04/11 08:31:18;;;;;;;15.93;3.10;;;;;;;9.50;100.00;101082.69;5067290;28;20127;-82
2022/04/11 08:33:45;;;;;;;10.63;2.60;;;;;;;9.32;100.00;101091.91;5072308;28;20048;-82
2022/04/11 08:36:12;;;;;;;19.55;2.30;;;;;;;9.56;100.00;101099.13;5072107;28;20052;-82
2022/04/11 08:38:39;;;;;;;16.00;2.83;;;;;;;9.56;100.00;101060.78;5073565;28;20539;-82
2022/04/11 08:41:12;;;;;;;11.02;2.60;;;;;;;10.22;100.00;101090.22;5071249;28;20055;-82
2022/04/11 08:43:40;;;;;;;17.02;2.78;;;;;;;9.29;100.00;101012.72;5067182;28;20475;-82
2022/04/11 08:46:07;;;;;;;10.85;3.28;;;;;;;9.60;100.00;101066.78;5067292;28;20503;-83
2022/04/11 08:48:34;;;;;;;12.77;2.97;;;;;;;9.74;100.00;101077.69;5071963;28;20542;-85
2022/04/11 08:51:03;;;;;;;10.30;2.60;;;;;;;9.83;100.00;101095.72;5071706;28;20044;-83
2022/04/11 08:53:31;;;;;;;15.05;2.70;;;;;;;9.62;100.00;101088.50;5070091;28;20079;-82
2022/04/11 08:55:58;;;;;;;14.15;2.35;;;;;;;9.85;100.00;101059.91;5063399;28;20056;-79
2022/04/11 08:58:26;;;;;;;12.10;2.97;;;;;;;10.05;100.00;101059.31;5053341;28;20055;-80
2022/04/11 09:00:52;;;;;;;17.42;3.25;;;;;;;10.32;100.00;101088.19;5051932;28;20055;-82
2022/04/11 09:03:19;;;;;;;14.27;2.53;;;;;;;10.02;100.00;101093.44;5060397;28;20094;-86
2022/04/11 09:06:14;;;;;;;12.50;3.13;;;;;;;10.04;100.00;101078.56;5059456;28;21049;-83
2022/04/11 09:08:46;;;;;;;13.23;2.97;;;;;;;10.13;100.00;101103.59;5061215;28;20052;-83
2022/04/11 09:11:25;;;;;;;17.05;3.15;;;;;;;9.77;100.00;101095.03;5072707;28;20051;-83
2022/04/11 09:13:53;;;;;;;14.60;2.40;;;;;;;9.53;100.00;101089.59;5066844;28;20048;-85
2022/04/11 09:16:19;;;;;;;19.85;3.42;;;;;;;10.10;100.00;101102.81;5075299;28;20478;-82
2022/04/11 09:18:52;;;;;;;10.38;2.67;;;;;;;10.10;100.00;101094.97;5091486;28;20058;-85
2022/04/11 09:21:20;;;;;;;18.13;4.60;;;;;;;9.93;100.00;101101.53;5092632;28;20056;-84
2022/04/11 09:23:47;;;;;;;23.55;3.42;;;;;;;9.82;100.00;101096.63;5078736;28;20072;-83
2022/04/11 09:26:18;;;;;;;11.55;2.92;;;;;;;9.55;100.00;101105.25;5072230;28;20048;-84
2022/04/11 09:29:05;;;;;;;11.30;2.50;;;;;;;10.30;100.00;101107.44;5072516;28;20052;-83
2022/04/11 09:31:32;;;;;;;12.43;2.70;;;;;;;10.09;100.00;101112.41;5072762;28;20471;-83
2022/04/11 09:34:18;;;;;;;16.88;2.88;;;;;;;9.34;100.00;101023.06;5070445;28;20041;-84
2022/04/11 09:37:00;;;;;;;15.65;2.97;;;;;;;9.24;100.00;101057.28;5070870;28;20075;-83
2022/04/11 09:39:32;;;;;;;22.92;3.83;;;;;;;9.31;100.00;101112.84;5072656;28;20045;-84
2022/04/11 09:42:03;;;;;;;14.10;2.95;;;;;;;9.65;100.00;101096.22;5072700;28;20525;-84
2022/04/11 09:44:34;;;;;;;18.33;4.75;;;;;;;9.51;100.00;101096.66;5071453;28;20629;-84
2022/04/11 09:47:05;;;;;;;17.50;3.20;;;;;;;9.60;100.00;101043.25;5071204;28;20068;-84
2022/04/11 09:49:33;;;;;;;12.55;2.67;;;;;;;9.97;100.00;101084.88;5067848;28;20399;-84
2022/04/11 09:52:01;;;;;;;11.63;3.47;;;;;;;9.97;100.00;101061.31;5051155;28;20051;-84
2022/04/11 09:54:28;;;;;;;9.80;2.45;;;;;;;9.71;100.00;101105.69;5064657;28;20056;-84
2022/04/11 09:56:59;;;;;;;18.80;3.47;;;;;;;9.27;100.00;101053.72;5051659;28;20052;-85
2022/04/11 09:59:26;;;;;;;12.07;2.70;;;;;;;9.92;100.00;101051.91;5059377;28;20135;-84
2022/04/11 10:01:54;;;;;;;19.33;3.60;;;;;;;10.39;100.00;101091.47;5067580;28;20059;-85
2022/04/11 10:04:21;;;;;;;12.55;2.58;;;;;;;9.82;100.00;101064.38;5066535;28;20052;-85
2022/04/11 10:06:49;;;;;;;9.93;2.22;;;;;;;10.24;100.00;101040.47;5071776;28;20140;-84
2022/04/11 10:09:19;;;;;;;20.55;3.03;;;;;;;10.47;100.00;101093.88;5065169;28;20380;-84
2022/04/11 10:11:46;;;;;;;15.93;3.00;;;;;;;10.38;100.00;101064.47;5066335;28;20726;-84
2022/04/11 10:14:23;;;;;;;16.35;2.63;;;;;;;10.32;100.00;101101.28;5069183;28;20149;-84
2022/04/11 10:16:52;;;;;;;12.27;2.60;;;;;;;10.30;100.00;101091.75;5065924;28;20487;-84
2022/04/11 10:19:33;;;;;;;14.65;2.63;;;;;;;10.44;100.00;101094.81;5064417;28;20135;-85
2022/04/11 10:22:13;;;;;;;13.48;3.42;;;;;;;10.03;100.00;101089.91;5057244;28;20076;-85
2022/04/11 10:25:01;;;;;;;12.25;2.95;;;;;;;10.11;100.00;101083.59;5068245;28;20394;-85
2022/04/11 10:27:29;;;;;;;19.73;3.40;;;;;;;10.02;100.00;101077.75;5069931;28;20449;-85
2022/04/11 10:29:56;;;;;;;19.27;3.03;;;;;;;10.05;100.00;101089.88;5068213;28;20049;-85
2022/04/11 10:32:29;;;;;;;12.00;3.30;;;;;;;9.82;100.00;101072.22;5074107;28;20485;-85
2022/04/11 10:35:03;;;;;;;13.82;2.30;;;;;;;10.42;100.00;101081.78;5074538;28;20040;-85
2022/04/11 10:37:39;;;;;;;13.65;3.00;;;;;;;9.75;100.00;101089.84;5072080;28;20139;-85
2022/04/11 10:40:15;;;;;;;12.15;2.75;;;;;;;9.82;100.00;101085.31;5070333;28;20077;-84
2022/04/11 10:43:08;;;;;;;12.85;2.40;;;;;;;9.94;100.00;101076.25;5071854;28;20566;-84
2022/04/11 10:45:57;;;;;;;14.65;2.70;;;;;;;9.88;100.00;101082.53;5062451;28;20052;-84
2022/04/11 10:48:56;;;;;;;15.40;2.92;;;;;;;9.79;100.00;101078.44;5068985;28;20668;-84
2022/04/11 10:51:23;;;;;;;13.13;2.85;;;;;;;9.60;100.00;101046.72;5056414;28;20052;-84
2022/04/11 10:54:19;;;;;;;13.38;2.65;;;;;;;9.97;100.00;101079.63;5066032;28;20048;-83
2022/04/11 10:57:06;;;;;;;14.23;2.97;;;;;;;9.87;100.00;101046.81;5066136;28;20494;-84
2022/04/11 11:00:15;;;;;;;10.90;2.33;;;;;;;10.04;100.00;101070.72;5073619;28;20053;-83
2022/04/11 11:02:48;;;;;;;13.50;2.70;;;;;;;10.31;100.00;101083.88;5067674;28;20553;-83
2022/04/11 11:05:40;;;;;;;11.95;2.55;;;;;;;9.83;100.00;101082.66;5074298;28;20060;-83
2022/04/11 11:08:10;;;;;;;13.15;2.42;;;;;;;9.56;100.00;101086.91;5074718;28;20044;-84
2022/04/11 11:11:15;;;;;;;19.35;2.53;;;;;;;9.72;100.00;101083.84;5071987;28;20040;-84
2022/04/11 11:13:42;;;;;;;17.55;2.65;;;;;;;9.05;100.00;101038.63;5083497;28;20048;-82
2022/04/11 11:16:14;;;;;;;12.15;2.38;;;;;;;9.74;100.00;101082.03;5065697;28;20044;-82
2022/04/11 11:18:52;;;;;;;9.98;2.20;;;;;;;9.86;100.00;101077.34;5065518;28;20103;-83
2022/04/11 11:21:32;;;;;;;13.00;2.60;;;;;;;9.72;100.00;101068.16;5063885;28;20049;-83
2022/04/11 11:24:07;;;;;;;15.57;2.90;;;;;;;9.76;100.00;101068.03;5061957;28;20049;-83
2022/04/11 11:26:55;;;;;;;9.35;2.20;;;;;;;9.77;100.00;101071.50;5069343;28;20059;-82
2022/04/11 11:29:29;;;;;;;13.32;2.25;;;;;;;9.58;100.00;101074.66;5074072;28;20466;-83